Time;durP1;ratioP1;P1;durP2;ratioP2;P2;SDS_P1;SDS_P2;PMS_P1;PMS_P2;Temp;Humidity;BMP_temperature;BMP_pressure;BME280_temperature;BME280_humidity;BME280_pressure;Samples;Min_cycle;Max_cycle;Signal;HPM_P1;HPM_P2
2021/10/15 00:00:35;;;;;;;2.67;2.08;;;12.30;98.70;;;;;;4989300;28;20033;-88
2021/10/15 00:03:00;;;;;;;2.53;1.75;;;12.30;98.70;;;;;;5006790;28;20066;-87
2021/10/15 00:05:29;;;;;;;5.70;2.47;;;12.30;98.50;;;;;;5001378;28;20486;-87
2021/10/15 00:07:55;;;;;;;3.50;1.98;;;12.30;98.50;;;;;;5003510;28;20026;-88
2021/10/15 00:10:23;;;;;;;5.80;2.25;;;12.30;98.40;;;;;;4989340;28;20092;-88
2021/10/15 00:12:49;;;;;;;1.58;1.13;;;12.30;98.30;;;;;;4989005;28;20034;-88
2021/10/15 00:15:14;;;;;;;2.88;1.55;;;12.30;98.30;;;;;;4987513;28;20081;-88
2021/10/15 00:17:40;;;;;;;4.13;2.47;;;12.30;98.20;;;;;;4988696;28;20026;-87
2021/10/15 00:20:06;;;;;;;4.25;2.28;;;12.30;98.20;;;;;;4989306;28;20053;-87
2021/10/15 00:22:32;;;;;;;4.53;1.58;;;12.30;98.20;;;;;;5006752;28;20029;-87
2021/10/15 00:24:57;;;;;;;8.25;2.50;;;12.20;98.10;;;;;;5005839;28;20384;-87
2021/10/15 00:27:23;;;;;;;5.70;1.83;;;12.30;98.10;;;;;;5002116;28;20022;-88
2021/10/15 00:29:48;;;;;;;5.85;2.72;;;12.20;98.10;;;;;;4980014;28;20034;-87
2021/10/15 00:32:14;;;;;;;9.93;2.35;;;12.20;98.00;;;;;;4986242;28;20034;-88
2021/10/15 00:34:40;;;;;;;4.88;2.25;;;12.30;98.00;;;;;;5003405;28;20070;-88
2021/10/15 00:37:07;;;;;;;6.43;2.88;;;12.20;98.10;;;;;;4985634;28;20106;-88
2021/10/15 00:39:33;;;;;;;4.93;2.28;;;12.20;97.90;;;;;;5019511;28;20038;-87
2021/10/15 00:41:58;;;;;;;3.13;1.67;;;12.10;98.00;;;;;;5003370;28;20091;-85
2021/10/15 00:44:24;;;;;;;5.03;2.28;;;12.10;97.80;;;;;;4997055;28;20034;-85
2021/10/15 00:46:49;;;;;;;2.90;1.48;;;12.20;97.70;;;;;;4970563;28;20359;-86
2021/10/15 00:49:15;;;;;;;12.02;2.53;;;12.10;97.50;;;;;;5005159;28;20034;-88
2021/10/15 00:51:42;;;;;;;3.38;1.35;;;12.10;97.60;;;;;;5000901;28;20030;-87
2021/10/15 00:54:08;;;;;;;3.47;1.58;;;12.00;97.60;;;;;;4989842;28;20033;-88
2021/10/15 00:56:33;;;;;;;4.28;1.92;;;12.00;97.50;;;;;;4989563;28;20173;-87
2021/10/15 00:59:00;;;;;;;1.80;1.35;;;12.00;97.40;;;;;;5005154;28;20049;-87
2021/10/15 01:01:26;;;;;;;3.45;2.17;;;12.00;97.40;;;;;;4997383;28;20113;-87
2021/10/15 01:03:51;;;;;;;6.20;1.90;;;12.00;97.50;;;;;;4991390;28;20133;-87
2021/10/15 01:06:17;;;;;;;7.05;2.67;;;12.00;97.40;;;;;;4986798;28;20039;-87
2021/10/15 01:08:46;;;;;;;2.97;1.30;;;11.90;97.50;;;;;;4984659;28;20061;-86
2021/10/15 01:11:13;;;;;;;7.15;2.30;;;12.00;97.50;;;;;;4975021;28;20045;-85
2021/10/15 01:13:38;;;;;;;5.03;2.33;;;12.00;97.50;;;;;;4996008;28;20479;-85
2021/10/15 01:16:05;;;;;;;3.03;2.08;;;11.90;97.40;;;;;;5000187;28;20023;-86
2021/10/15 01:18:30;;;;;;;4.40;2.42;;;11.90;97.50;;;;;;5003178;28;21039;-86
2021/10/15 01:20:56;;;;;;;6.70;2.10;;;11.90;97.60;;;;;;5000578;28;20041;-86
2021/10/15 01:23:21;;;;;;;4.97;1.45;;;11.90;97.50;;;;;;4987199;28;20030;-86
2021/10/15 01:25:47;;;;;;;5.43;2.40;;;11.90;97.60;;;;;;5001315;28;20029;-85
2021/10/15 01:28:12;;;;;;;6.90;3.85;;;11.90;97.60;;;;;;4983027;28;20092;-86
2021/10/15 01:30:38;;;;;;;1.80;1.08;;;11.90;97.60;;;;;;4990937;28;20121;-86
2021/10/15 01:33:03;;;;;;;3.53;1.67;;;11.90;97.60;;;;;;4998615;28;20023;-86
2021/10/15 01:35:29;;;;;;;4.07;2.50;;;11.80;97.60;;;;;;5004184;28;20022;-86
2021/10/15 01:37:54;;;;;;;5.75;2.33;;;11.80;97.60;;;;;;4992622;28;20205;-87
2021/10/15 01:40:20;;;;;;;5.53;2.65;;;11.80;97.50;;;;;;5002721;28;20394;-87
2021/10/15 01:42:55;;;;;;;9.40;2.25;;;11.80;97.60;;;;;;5007599;28;20033;-86
2021/10/15 01:45:38;;;;;;;4.03;2.08;;;11.80;97.70;;;;;;5005527;28;20529;-86
2021/10/15 01:48:04;;;;;;;9.95;2.10;;;11.70;97.60;;;;;;4976853;28;20040;-86
2021/10/15 01:50:30;;;;;;;6.78;2.75;;;11.70;97.70;;;;;;5007382;28;20026;-87
2021/10/15 01:52:55;;;;;;;9.43;3.55;;;11.70;97.60;;;;;;4977902;28;20034;-86
2021/10/15 01:55:21;;;;;;;2.47;1.40;;;11.70;97.70;;;;;;5005908;28;20435;-87
2021/10/15 01:57:47;;;;;;;5.75;2.42;;;11.70;97.70;;;;;;4990848;28;20056;-86
2021/10/15 02:00:13;;;;;;;8.05;3.10;;;11.70;97.70;;;;;;5010044;28;20060;-85
2021/10/15 02:02:39;;;;;;;7.93;2.75;;;11.60;97.70;;;;;;4986249;28;20363;-86
2021/10/15 02:05:06;;;;;;;3.78;1.67;;;11.60;97.70;;;;;;4973608;28;20486;-86
2021/10/15 02:07:32;;;;;;;10.77;3.10;;;11.60;97.60;;;;;;4987355;28;20438;-86
2021/10/15 02:09:57;;;;;;;9.98;3.15;;;11.60;97.80;;;;;;5006002;28;20081;-85
2021/10/15 02:12:23;;;;;;;8.13;2.97;;;11.50;97.80;;;;;;4991072;28;20393;-86
2021/10/15 02:14:48;;;;;;;6.30;2.50;;;11.50;97.80;;;;;;4992647;28;20037;-85
2021/10/15 02:17:14;;;;;;;8.60;3.05;;;11.60;97.80;;;;;;4973695;28;20118;-86
2021/10/15 02:19:39;;;;;;;5.65;1.50;;;11.60;97.80;;;;;;5006456;28;20065;-86
2021/10/15 02:22:05;;;;;;;8.63;2.58;;;11.50;97.90;;;;;;5006271;28;20046;-87
2021/10/15 02:24:30;;;;;;;3.92;1.85;;;11.50;97.80;;;;;;5007275;28;20034;-86
2021/10/15 02:26:56;;;;;;;5.65;3.00;;;11.50;97.90;;;;;;5001305;28;20041;-86
2021/10/15 02:29:22;;;;;;;7.97;3.58;;;11.50;97.90;;;;;;5008620;28;20041;-86
2021/10/15 02:31:47;;;;;;;9.70;3.20;;;11.40;97.90;;;;;;4988185;28;20092;-86
2021/10/15 02:34:13;;;;;;;5.55;1.98;;;11.40;98.00;;;;;;5008177;28;20091;-85
2021/10/15 02:36:38;;;;;;;6.65;2.92;;;11.40;98.10;;;;;;4972559;28;20045;-86
2021/10/15 02:39:04;;;;;;;10.10;2.97;;;11.40;98.10;;;;;;5007279;28;20983;-86
2021/10/15 02:41:30;;;;;;;7.55;2.83;;;11.40;98.00;;;;;;4990997;28;20512;-86
2021/10/15 02:43:56;;;;;;;6.25;2.97;;;11.40;98.10;;;;;;4971101;28;20029;-85
2021/10/15 02:46:21;;;;;;;7.18;2.03;;;11.40;98.00;;;;;;4999908;28;20548;-86
2021/10/15 02:48:47;;;;;;;4.68;2.88;;;11.40;98.00;;;;;;4991009;28;20201;-86
2021/10/15 02:51:12;;;;;;;7.18;3.20;;;11.30;98.20;;;;;;4975420;28;20042;-86
2021/10/15 02:53:38;;;;;;;10.13;3.65;;;11.40;98.20;;;;;;5002512;28;20084;-86
2021/10/15 02:56:05;;;;;;;2.95;2.03;;;11.40;98.20;;;;;;5006232;28;20032;-86
2021/10/15 02:58:30;;;;;;;9.00;3.78;;;11.40;98.20;;;;;;5005541;28;20084;-82
2021/10/15 03:00:56;;;;;;;5.53;1.95;;;11.30;98.20;;;;;;5003523;28;20026;-82
2021/10/15 03:03:22;;;;;;;7.28;2.80;;;11.30;98.20;;;;;;5006045;28;20098;-82
2021/10/15 03:05:47;;;;;;;9.00;3.40;;;11.30;98.20;;;;;;4988210;28;20506;-82
2021/10/15 03:08:13;;;;;;;9.10;4.05;;;11.30;98.20;;;;;;4990478;28;20497;-82
2021/10/15 03:10:38;;;;;;;8.07;3.05;;;11.30;98.30;;;;;;4991914;28;20041;-82
2021/10/15 03:13:04;;;;;;;4.95;2.45;;;11.40;98.40;;;;;;5002736;28;20060;-82
2021/10/15 03:15:30;;;;;;;2.72;2.00;;;11.30;98.40;;;;;;5003127;28;20138;-82
2021/10/15 03:17:56;;;;;;;8.73;3.58;;;11.30;98.50;;;;;;4972594;28;20034;-82
2021/10/15 03:20:22;;;;;;;4.13;1.90;;;11.30;98.40;;;;;;5003121;28;20102;-82
2021/10/15 03:22:47;;;;;;;6.03;2.22;;;11.30;98.40;;;;;;5000865;28;20034;-82
2021/10/15 03:25:13;;;;;;;9.68;3.40;;;11.30;98.50;;;;;;4989244;28;20368;-82
2021/10/15 03:27:38;;;;;;;9.10;3.65;;;11.30;98.50;;;;;;4988244;28;20026;-83
2021/10/15 03:30:05;;;;;;;6.03;3.53;;;11.30;98.50;;;;;;5004454;28;20116;-82
2021/10/15 03:32:30;;;;;;;3.70;2.55;;;11.30;98.50;;;;;;5003769;28;20038;-83
2021/10/15 03:34:56;;;;;;;7.07;4.28;;;11.40;98.50;;;;;;5005342;28;20046;-82
2021/10/15 03:37:23;;;;;;;4.78;2.50;;;11.40;98.50;;;;;;4987565;28;20049;-82
2021/10/15 03:39:49;;;;;;;10.52;3.55;;;11.30;98.50;;;;;;5001789;28;20033;-82
2021/10/15 03:42:15;;;;;;;4.03;2.63;;;11.30;98.40;;;;;;4989837;28;20030;-82
2021/10/15 03:44:41;;;;;;;6.85;2.33;;;11.30;98.50;;;;;;4988431;28;20402;-82
2021/10/15 03:47:06;;;;;;;5.13;2.90;;;11.30;98.40;;;;;;5004334;28;20034;-81
2021/10/15 03:49:32;;;;;;;7.88;3.85;;;11.30;98.50;;;;;;5006344;28;20121;-82
2021/10/15 03:51:57;;;;;;;7.45;3.28;;;11.30;98.40;;;;;;4971988;28;20026;-82
2021/10/15 03:54:23;;;;;;;4.13;3.13;;;11.30;98.50;;;;;;4982118;28;20038;-82
2021/10/15 03:56:48;;;;;;;7.88;4.38;;;11.30;98.50;;;;;;4985639;28;20050;-82
2021/10/15 03:59:14;;;;;;;9.30;3.85;;;11.30;98.50;;;;;;5003880;28;20038;-81
2021/10/15 04:01:40;;;;;;;6.68;3.10;;;11.30;98.50;;;;;;4998694;28;20041;-82
2021/10/15 04:04:05;;;;;;;5.55;4.05;;;11.30;98.50;;;;;;4987962;28;20018;-83
2021/10/15 04:06:31;;;;;;;8.25;2.83;;;11.20;98.50;;;;;;4984618;28;20030;-82
2021/10/15 04:08:56;;;;;;;4.28;2.38;;;11.30;98.50;;;;;;4974614;28;20038;-82
2021/10/15 04:11:22;;;;;;;8.63;4.43;;;11.30;98.50;;;;;;4989993;28;20041;-82
2021/10/15 04:13:47;;;;;;;8.88;3.13;;;11.30;98.60;;;;;;4986037;28;20038;-82
2021/10/15 04:16:13;;;;;;;7.40;3.67;;;11.30;98.60;;;;;;4981588;28;20537;-83
2021/10/15 04:18:38;;;;;;;5.93;3.00;;;11.20;98.60;;;;;;4986651;28;20034;-83
2021/10/15 04:21:04;;;;;;;7.50;3.50;;;11.20;98.60;;;;;;4988655;28;20033;-82
2021/10/15 04:23:29;;;;;;;6.20;2.97;;;11.20;98.60;;;;;;5003231;28;20086;-81
2021/10/15 04:25:55;;;;;;;10.38;2.55;;;11.20;98.60;;;;;;4969612;28;20434;-82
2021/10/15 04:28:21;;;;;;;6.30;3.88;;;11.20;98.60;;;;;;4986501;28;20391;-82
2021/10/15 04:30:47;;;;;;;6.18;3.85;;;11.20;98.70;;;;;;4987340;28;20034;-82
2021/10/15 04:33:12;;;;;;;8.63;3.78;;;11.20;98.70;;;;;;4985476;28;20133;-82
2021/10/15 04:35:38;;;;;;;7.45;2.88;;;11.20;98.80;;;;;;4997380;28;20062;-82
2021/10/15 04:38:03;;;;;;;3.88;1.85;;;11.20;98.80;;;;;;5003670;28;20496;-82
2021/10/15 04:40:29;;;;;;;5.45;2.90;;;11.30;98.80;;;;;;4988727;28;20394;-82
2021/10/15 04:42:54;;;;;;;9.20;4.65;;;11.20;98.90;;;;;;4968627;28;20497;-82
2021/10/15 04:45:20;;;;;;;7.82;3.20;;;11.20;98.90;;;;;;5003173;28;20545;-81
2021/10/15 04:47:45;;;;;;;4.25;2.72;;;11.20;99.00;;;;;;4998234;28;20034;-82
2021/10/15 04:50:11;;;;;;;8.40;3.75;;;11.20;99.00;;;;;;4997714;28;20545;-82
2021/10/15 04:52:36;;;;;;;5.55;3.53;;;11.20;99.00;;;;;;4997039;28;20032;-81
2021/10/15 04:55:02;;;;;;;3.10;2.35;;;11.20;99.10;;;;;;4980596;28;20030;-82
2021/10/15 04:57:28;;;;;;;9.82;3.70;;;11.20;99.10;;;;;;4999307;28;20081;-81
2021/10/15 04:59:53;;;;;;;11.38;5.05;;;11.20;99.10;;;;;;4972610;28;20113;-81
2021/10/15 05:02:19;;;;;;;8.32;3.10;;;11.10;99.10;;;;;;5000334;28;20033;-82
2021/10/15 05:04:45;;;;;;;4.97;3.30;;;11.10;99.10;;;;;;4991733;28;20505;-81
2021/10/15 05:07:10;;;;;;;7.22;4.10;;;11.10;99.10;;;;;;4987495;28;20026;-81
2021/10/15 05:09:36;;;;;;;6.38;4.75;;;11.10;99.10;;;;;;4992265;28;20038;-82
2021/10/15 05:12:06;;;;;;;11.88;3.63;;;11.10;99.10;;;;;;4983655;28;20035;-82
2021/10/15 05:14:33;;;;;;;6.80;3.25;;;11.10;99.20;;;;;;5001978;28;20034;-82
2021/10/15 05:17:00;;;;;;;6.57;3.25;;;11.10;99.20;;;;;;4986651;28;20041;-82
2021/10/15 05:19:25;;;;;;;8.45;4.25;;;11.20;99.40;;;;;;5005657;28;20044;-81
2021/10/15 05:21:51;;;;;;;10.18;4.72;;;11.00;99.20;;;;;;4988028;28;20029;-81
2021/10/15 05:24:17;;;;;;;8.23;2.78;;;11.20;99.30;;;;;;4997917;28;20487;-82
2021/10/15 05:26:42;;;;;;;12.88;5.07;;;11.10;99.20;;;;;;4991473;28;20033;-81
2021/10/15 05:29:08;;;;;;;6.75;3.10;;;11.00;99.20;;;;;;4985615;28;20121;-81
2021/10/15 05:31:33;;;;;;;7.70;4.32;;;11.00;99.20;;;;;;5004928;28;20105;-81
2021/10/15 05:33:59;;;;;;;14.70;6.60;;;11.00;99.30;;;;;;4995101;28;20061;-82
2021/10/15 05:36:24;;;;;;;6.25;3.70;;;11.00;99.20;;;;;;4999175;28;20037;-81
2021/10/15 05:38:50;;;;;;;6.53;2.95;;;11.00;99.30;;;;;;4990065;28;20579;-81
2021/10/15 05:41:16;;;;;;;5.70;2.65;;;11.00;99.30;;;;;;4988673;28;20501;-81
2021/10/15 05:43:41;;;;;;;6.70;3.25;;;11.00;99.30;;;;;;4987834;28;20038;-81
2021/10/15 05:46:07;;;;;;;6.45;3.75;;;11.00;99.30;;;;;;5001392;28;20034;-82
2021/10/15 05:48:32;;;;;;;12.82;4.60;;;11.00;99.40;;;;;;4983524;28;20113;-82
2021/10/15 05:50:58;;;;;;;4.38;2.58;;;11.00;99.40;;;;;;4996945;28;20034;-81
2021/10/15 05:53:25;;;;;;;12.23;4.15;;;11.00;99.40;;;;;;5005925;28;20026;-82
2021/10/15 05:58:50;;;;;;;8.90;4.00;;;11.00;99.50;;;;;;5007058;28;20030;-82
2021/10/15 06:01:22;;;;;;;6.40;3.15;;;11.00;99.50;;;;;;4999634;28;20077;-82
2021/10/15 06:03:58;;;;;;;7.40;4.15;;;11.00;99.50;;;;;;5002679;28;20133;-81
2021/10/15 06:08:19;;;;;;;10.23;4.88;;;11.00;99.70;;;;;;5005332;28;20042;-81
2021/10/15 06:14:55;;;;;;;5.90;3.53;;;10.90;99.80;;;;;;5002965;28;20029;-82
2021/10/15 06:17:21;;;;;;;9.52;4.90;;;10.90;99.80;;;;;;4990339;28;20025;-82
2021/10/15 06:19:52;;;;;;;7.97;4.18;;;10.90;99.90;;;;;;4991160;28;20045;-82
2021/10/15 06:22:25;;;;;;;10.57;4.80;;;11.00;99.90;;;;;;4990218;28;20040;-81
2021/10/15 06:24:51;;;;;;;9.27;4.43;;;11.00;99.90;;;;;;4990566;28;20040;-82
2021/10/15 06:27:18;;;;;;;16.35;6.10;;;10.90;99.90;;;;;;4974052;28;20030;-82
2021/10/15 06:29:44;;;;;;;11.13;3.95;;;11.00;99.90;;;;;;4992224;28;20037;-82
2021/10/15 06:32:10;;;;;;;11.13;3.88;;;11.00;99.90;;;;;;4983162;28;20037;-82
2021/10/15 06:34:36;;;;;;;5.38;2.90;;;11.00;99.90;;;;;;5003433;28;20417;-82
2021/10/15 06:37:01;;;;;;;5.47;3.50;;;11.00;99.90;;;;;;4987749;28;20033;-83
2021/10/15 06:40:01;;;;;;;8.18;4.63;;;11.00;99.90;;;;;;4990778;28;20038;-82
2021/10/15 06:42:28;;;;;;;10.93;3.58;;;11.00;99.90;;;;;;5008697;28;20173;-82
2021/10/15 06:44:54;;;;;;;8.02;3.88;;;11.00;99.90;;;;;;4983922;28;20033;-81
2021/10/15 06:47:20;;;;;;;9.93;3.63;;;11.10;99.90;;;;;;4992097;28;20026;-82
2021/10/15 06:49:45;;;;;;;16.92;4.43;;;11.10;99.90;;;;;;5004871;28;20022;-82
2021/10/15 06:52:11;;;;;;;8.15;3.10;;;11.10;99.90;;;;;;4991276;28;20037;-82
2021/10/15 06:54:37;;;;;;;6.78;2.53;;;11.10;99.90;;;;;;4988406;28;20030;-81
2021/10/15 06:57:02;;;;;;;10.52;4.32;;;11.10;99.90;;;;;;4973319;28;20034;-81
2021/10/15 06:59:28;;;;;;;7.22;4.43;;;11.20;99.90;;;;;;5004507;28;20470;-82
2021/10/15 07:01:53;;;;;;;9.27;4.55;;;11.20;99.90;;;;;;4973858;28;20030;-82
2021/10/15 07:04:20;;;;;;;3.15;2.65;;;11.30;99.90;;;;;;4991248;28;20497;-81
2021/10/15 07:06:45;;;;;;;7.43;2.60;;;11.20;99.90;;;;;;4990137;28;20313;-81
2021/10/15 07:09:11;;;;;;;7.25;2.72;;;11.20;99.90;;;;;;4985836;28;20026;-81
2021/10/15 07:11:38;;;;;;;8.90;3.78;;;11.30;99.90;;;;;;4996567;28;20435;-82
2021/10/15 07:14:04;;;;;;;4.43;2.85;;;11.40;99.90;;;;;;5000661;28;20121;-81
2021/10/15 07:16:30;;;;;;;6.97;3.58;;;11.30;99.90;;;;;;4999623;28;20136;-81
2021/10/15 07:18:55;;;;;;;4.40;2.63;;;11.30;99.90;;;;;;4973518;28;20035;-82
2021/10/15 07:21:21;;;;;;;7.93;5.32;;;11.30;99.90;;;;;;4983110;28;20079;-82
2021/10/15 07:23:47;;;;;;;9.30;2.22;;;11.40;99.90;;;;;;4983670;28;20402;-83
2021/10/15 07:26:12;;;;;;;8.50;3.70;;;11.40;99.90;;;;;;4987669;28;20544;-82
2021/10/15 07:28:38;;;;;;;8.77;2.17;;;11.40;99.90;;;;;;4986499;28;20434;-82
2021/10/15 07:31:03;;;;;;;6.63;3.63;;;11.50;99.90;;;;;;5004572;28;20029;-81
2021/10/15 07:33:29;;;;;;;8.40;3.97;;;11.40;99.90;;;;;;4990440;28;20435;-82
2021/10/15 07:35:54;;;;;;;10.73;5.00;;;11.40;99.90;;;;;;4962691;28;20383;-81
2021/10/15 07:38:20;;;;;;;8.65;3.83;;;11.50;99.90;;;;;;4989208;28;20041;-82
2021/10/15 07:40:46;;;;;;;5.93;4.05;;;11.50;99.90;;;;;;5004875;28;20033;-82
2021/10/15 07:43:11;;;;;;;9.85;3.70;;;11.50;99.90;;;;;;4988425;28;20029;-82
2021/10/15 07:45:37;;;;;;;6.47;3.63;;;11.50;99.90;;;;;;4986605;28;20018;-82
2021/10/15 07:48:02;;;;;;;9.45;3.78;;;11.50;99.90;;;;;;4987077;28;20041;-82
2021/10/15 07:50:28;;;;;;;4.07;2.10;;;11.60;99.90;;;;;;4997481;28;20022;-82
2021/10/15 07:52:54;;;;;;;6.50;3.40;;;11.60;99.90;;;;;;4988141;28;20030;-82
2021/10/15 07:55:19;;;;;;;5.95;3.58;;;11.70;99.90;;;;;;4988106;28;20026;-82
2021/10/15 07:57:45;;;;;;;8.02;4.88;;;11.60;99.90;;;;;;4987059;28;20031;-82
2021/10/15 08:00:11;;;;;;;5.50;3.33;;;11.70;99.90;;;;;;4984605;28;20039;-81
2021/10/15 08:02:37;;;;;;;18.67;6.03;;;11.70;99.90;;;;;;4981042;28;20120;-82
2021/10/15 08:05:03;;;;;;;7.88;3.55;;;11.70;99.90;;;;;;4971255;28;20129;-82
2021/10/15 08:07:29;;;;;;;8.45;3.63;;;11.80;99.90;;;;;;4961817;28;20031;-82
2021/10/15 08:09:54;;;;;;;1.88;1.17;;;11.80;99.90;;;;;;4978259;28;20252;-82
2021/10/15 08:12:20;;;;;;;7.07;4.93;;;11.80;99.90;;;;;;4985059;28;20470;-83
2021/10/15 08:14:45;;;;;;;8.82;2.95;;;11.80;99.90;;;;;;4981547;28;20169;-81
2021/10/15 08:17:11;;;;;;;7.38;3.55;;;11.80;99.90;;;;;;4985064;28;20486;-82
2021/10/15 08:19:40;;;;;;;4.45;2.75;;;11.90;99.90;;;;;;4994808;28;20523;-82
2021/10/15 08:22:06;;;;;;;8.10;2.70;;;11.90;99.90;;;;;;4977054;28;20074;-82
2021/10/15 08:24:32;;;;;;;14.00;5.30;;;11.90;99.90;;;;;;4978625;28;20829;-82
2021/10/15 08:26:57;;;;;;;8.35;4.47;;;12.00;99.90;;;;;;4979181;28;20379;-82
2021/10/15 08:29:23;;;;;;;4.38;2.03;;;12.00;99.90;;;;;;5003973;28;20087;-82
2021/10/15 08:31:52;;;;;;;6.05;4.18;;;12.10;99.90;;;;;;4980473;28;20038;-82
2021/10/15 08:34:18;;;;;;;13.05;4.47;;;12.10;99.90;;;;;;5002553;28;20481;-82
2021/10/15 08:36:45;;;;;;;9.45;2.58;;;12.10;99.90;;;;;;5003218;28;20034;-82
2021/10/15 08:39:11;;;;;;;9.18;4.60;;;12.00;99.90;;;;;;5003409;28;20041;-81
2021/10/15 08:41:37;;;;;;;14.68;5.05;;;12.10;99.90;;;;;;4997539;28;20045;-82
2021/10/15 08:44:03;;;;;;;5.10;2.55;;;12.10;99.90;;;;;;4983774;28;20025;-82
2021/10/15 08:46:28;;;;;;;10.27;6.05;;;12.10;99.90;;;;;;4988576;28;20141;-82
2021/10/15 08:48:54;;;;;;;10.38;5.00;;;12.10;99.90;;;;;;4988279;28;20477;-82
2021/10/15 08:51:20;;;;;;;6.35;3.17;;;12.20;99.90;;;;;;4983569;28;20084;-82
2021/10/15 08:53:51;;;;;;;6.88;3.70;;;12.20;99.90;;;;;;5003585;28;20584;-83
2021/10/15 08:56:17;;;;;;;7.97;4.53;;;12.10;99.90;;;;;;4971452;28;20040;-84
2021/10/15 08:58:47;;;;;;;13.43;5.45;;;12.00;99.90;;;;;;5004201;28;20030;-86
2021/10/15 09:01:13;;;;;;;4.95;3.15;;;12.10;99.90;;;;;;4999139;28;20355;-85
2021/10/15 09:03:38;;;;;;;11.25;7.28;;;12.00;99.90;;;;;;4989485;28;20037;-86
2021/10/15 09:06:07;;;;;;;14.23;7.20;;;11.90;99.90;;;;;;4991890;28;20060;-86
2021/10/15 09:08:53;;;;;;;16.75;8.85;;;11.90;99.90;;;;;;4966920;28;20040;-86
2021/10/15 09:11:37;;;;;;;;;;;11.80;99.90;;;;;;4968597;28;20517;-86
2021/10/15 09:14:12;;;;;;;11.50;6.95;;;11.80;99.90;;;;;;5003622;28;19997;-85
2021/10/15 09:17:06;;;;;;;13.40;7.40;;;11.70;99.90;;;;;;4987338;28;20045;-85
2021/10/15 09:19:31;;;;;;;11.75;7.75;;;11.70;99.90;;;;;;4978628;28;20176;-86
2021/10/15 09:22:45;;;;;;;14.13;9.13;;;11.70;99.90;;;;;;5002543;28;20030;-85
2021/10/15 09:25:11;;;;;;;12.52;6.45;;;11.70;99.90;;;;;;4980141;28;20475;-85
2021/10/15 09:27:43;;;;;;;13.45;8.15;;;11.70;99.90;;;;;;4977335;28;20034;-86
2021/10/15 09:30:10;;;;;;;17.02;6.93;;;11.80;99.90;;;;;;4975067;28;20489;-85
2021/10/15 09:32:45;;;;;;;18.23;8.98;;;11.70;99.90;;;;;;4978434;28;20046;-85
2021/10/15 09:35:18;;;;;;;14.63;7.85;;;11.80;99.90;;;;;;4966345;28;20030;-85
2021/10/15 09:37:45;;;;;;;18.67;11.10;;;11.80;99.90;;;;;;4982981;28;20558;-85
2021/10/15 09:40:14;;;;;;;22.30;13.73;;;11.70;99.90;;;;;;5001977;28;20092;-85
2021/10/15 09:42:49;;;;;;;25.10;15.50;;;11.70;99.90;;;;;;4985813;28;20042;-85
2021/10/15 09:45:30;;;;;;;29.70;19.40;;;11.70;99.90;;;;;;4961810;28;20034;-85
2021/10/15 09:47:57;;;;;;;20.85;15.23;;;11.70;99.90;;;;;;4982873;28;20030;-86
2021/10/15 09:50:24;;;;;;;26.02;18.58;;;11.80;99.90;;;;;;4974955;28;20478;-86
2021/10/15 09:53:05;;;;;;;22.38;15.85;;;11.80;99.90;;;;;;4991949;28;20132;-85
2021/10/15 09:55:41;;;;;;;19.17;13.40;;;11.80;99.90;;;;;;4964093;28;20037;-87
2021/10/15 09:58:24;;;;;;;;;;;11.80;99.90;;;;;;4947478;28;20053;-86
2021/10/15 10:00:52;;;;;;;14.90;10.27;;;11.80;99.90;;;;;;4982677;28;19917;-86
2021/10/15 10:03:20;;;;;;;11.35;9.93;;;11.90;99.90;;;;;;4972019;28;20860;-86
2021/10/15 10:05:46;;;;;;;16.38;9.73;;;12.10;99.90;;;;;;4970905;28;20472;-86
2021/10/15 10:08:12;;;;;;;12.45;8.93;;;12.10;99.90;;;;;;4957149;28;20027;-86
2021/10/15 10:10:38;;;;;;;9.25;7.18;;;12.20;99.90;;;;;;4961554;28;20134;-85
2021/10/15 10:13:04;;;;;;;10.00;7.50;;;12.40;99.90;;;;;;4985734;28;20426;-85
2021/10/15 10:15:33;;;;;;;9.77;6.43;;;12.40;99.90;;;;;;4983459;28;20043;-85
2021/10/15 10:18:17;;;;;;;8.40;5.75;;;12.50;99.90;;;;;;4963377;28;20776;-85
2021/10/15 10:20:52;;;;;;;5.43;3.50;;;12.60;99.90;;;;;;4986439;28;20375;-85
2021/10/15 10:23:30;;;;;;;6.63;2.72;;;12.70;99.90;;;;;;4975396;28;20127;-85
2021/10/15 10:26:00;;;;;;;1.85;1.45;;;12.70;99.90;;;;;;4984768;28;20324;-85
2021/10/15 10:28:27;;;;;;;6.18;1.73;;;12.80;99.90;;;;;;4974936;28;20026;-84
2021/10/15 10:30:57;;;;;;;4.57;1.85;;;12.90;99.90;;;;;;4987184;28;20442;-85
2021/10/15 10:33:23;;;;;;;3.00;1.95;;;13.00;99.90;;;;;;4977275;28;20080;-85
2021/10/15 10:35:52;;;;;;;3.40;1.63;;;13.00;99.90;;;;;;4947194;28;20041;-84
2021/10/15 10:38:23;;;;;;;2.10;1.45;;;13.10;99.90;;;;;;4963160;28;20034;-85
2021/10/15 10:41:00;;;;;;;3.10;1.30;;;13.20;99.90;;;;;;5003469;28;20042;-85
2021/10/15 10:43:30;;;;;;;3.30;2.03;;;13.30;99.90;;;;;;4990121;28;20045;-85
2021/10/15 10:46:21;;;;;;;2.78;1.65;;;13.40;99.90;;;;;;4964215;28;20065;-85
2021/10/15 10:48:53;;;;;;;4.93;1.67;;;13.50;99.90;;;;;;5002212;28;20116;-85
2021/10/15 10:51:22;;;;;;;2.47;1.20;;;13.60;99.90;;;;;;5012321;28;20121;-85
2021/10/15 10:54:01;;;;;;;1.92;0.93;;;13.70;99.90;;;;;;4980106;28;20485;-84
2021/10/15 10:56:38;;;;;;;2.75;1.02;;;13.70;99.90;;;;;;5012592;28;20045;-85
2021/10/15 10:59:20;;;;;;;3.13;1.17;;;13.80;99.90;;;;;;4999420;28;20038;-84
2021/10/15 11:02:00;;;;;;;1.67;0.80;;;14.00;99.90;;;;;;5015417;28;20069;-84
2021/10/15 11:04:27;;;;;;;2.20;0.90;;;14.00;99.90;;;;;;4989452;28;20038;-83
2021/10/15 11:06:57;;;;;;;1.30;0.77;;;14.10;99.90;;;;;;4981134;28;20030;-84
2021/10/15 11:09:30;;;;;;;5.38;0.90;;;14.20;99.90;;;;;;5005621;28;20044;-84
2021/10/15 11:11:55;;;;;;;1.92;0.90;;;14.40;99.90;;;;;;5003220;28;20038;-84
2021/10/15 11:14:22;;;;;;;6.43;1.40;;;14.40;99.90;;;;;;5004635;28;20069;-84
2021/10/15 11:16:48;;;;;;;4.13;0.90;;;14.50;99.90;;;;;;5022027;28;20042;-84
2021/10/15 11:19:20;;;;;;;3.00;1.08;;;14.50;99.90;;;;;;4987384;28;20042;-84
2021/10/15 11:21:46;;;;;;;1.02;0.70;;;14.70;99.90;;;;;;5001832;28;20029;-84
2021/10/15 11:24:15;;;;;;;2.50;0.80;;;14.80;99.90;;;;;;4987441;28;20517;-84
2021/10/15 11:26:40;;;;;;;1.75;1.00;;;14.80;99.90;;;;;;5001676;28;20042;-84
2021/10/15 11:29:06;;;;;;;1.92;1.10;;;15.00;99.90;;;;;;4989826;28;20040;-84
2021/10/15 11:31:32;;;;;;;5.70;1.23;;;15.10;99.90;;;;;;4999855;28;20046;-84
2021/10/15 11:34:10;;;;;;;4.82;1.10;;;15.20;99.90;;;;;;4984026;28;20062;-84
2021/10/15 11:36:36;;;;;;;5.10;1.13;;;15.30;99.90;;;;;;4997441;28;20049;-83
2021/10/15 11:39:01;;;;;;;4.93;1.25;;;15.40;99.90;;;;;;4987152;28;20435;-84
2021/10/15 11:41:27;;;;;;;7.75;2.55;;;15.30;99.90;;;;;;4986071;28;20034;-84
2021/10/15 11:43:53;;;;;;;4.20;1.48;;;15.20;99.90;;;;;;5003001;28;20125;-84
2021/10/15 11:46:20;;;;;;;4.57;0.98;;;15.10;99.90;;;;;;4983959;28;20950;-84
2021/10/15 11:48:48;;;;;;;5.65;0.93;;;15.10;99.90;;;;;;4969682;28;20077;-83
2021/10/15 11:51:15;;;;;;;2.85;0.80;;;15.10;99.90;;;;;;4988844;28;20026;-83
2021/10/15 11:53:43;;;;;;;3.95;0.93;;;15.00;99.90;;;;;;5018029;28;20393;-83
2021/10/15 11:56:14;;;;;;;4.32;0.93;;;15.20;99.90;;;;;;4996261;28;20031;-84
2021/10/15 11:58:49;;;;;;;4.25;1.42;;;15.10;99.90;;;;;;5000122;28;20046;-83
2021/10/15 12:01:16;;;;;;;6.18;2.10;;;15.20;99.90;;;;;;4993173;28;20167;-84
2021/10/15 12:03:52;;;;;;;3.97;0.85;;;15.10;99.90;;;;;;4984973;28;20025;-83
2021/10/15 12:06:27;;;;;;;;;;;15.20;99.90;;;;;;5001976;28;20065;-83
2021/10/15 12:08:55;;;;;;;7.25;1.23;;;15.20;99.90;;;;;;4991079;28;19918;-83
2021/10/15 12:11:40;;;;;;;4.95;1.23;;;15.20;99.90;;;;;;4994540;28;20537;-84
2021/10/15 12:14:21;;;;;;;6.13;0.93;;;15.10;99.90;;;;;;4983368;28;20733;-84
2021/10/15 12:17:06;;;;;;;6.32;1.02;;;15.20;99.90;;;;;;4975178;28;20398;-83
2021/10/15 12:19:33;;;;;;;7.30;0.77;;;15.10;99.90;;;;;;5001852;28;20383;-83
2021/10/15 12:22:13;;;;;;;4.85;0.90;;;15.00;99.90;;;;;;4967291;28;20849;-83
2021/10/15 12:24:42;;;;;;;3.63;0.70;;;14.90;99.90;;;;;;5001219;28;20053;-83
2021/10/15 12:27:36;;;;;;;5.70;1.10;;;14.90;99.90;;;;;;5005137;28;20030;-83
2021/10/15 12:30:04;;;;;;;6.03;0.90;;;14.90;99.90;;;;;;4979509;28;20045;-82
2021/10/15 12:32:39;;;;;;;7.35;1.10;;;14.80;99.90;;;;;;4984868;28;20064;-84
2021/10/15 12:35:14;;;;;;;4.75;1.13;;;14.80;99.90;;;;;;4982968;28;20029;-83
2021/10/15 12:37:49;;;;;;;4.77;1.10;;;15.10;99.90;;;;;;4988719;28;20474;-83
2021/10/15 12:40:19;;;;;;;8.52;1.08;;;15.20;99.90;;;;;;4996899;28;20062;-83
2021/10/15 12:42:51;;;;;;;2.25;0.80;;;15.50;99.90;;;;;;4977488;28;20035;-83
2021/10/15 12:45:16;;;;;;;4.70;1.10;;;15.30;99.90;;;;;;4998229;28;20384;-83
2021/10/15 12:48:13;;;;;;;4.78;1.45;;;15.30;99.90;;;;;;4963845;28;20045;-84
2021/10/15 12:50:40;;;;;;;4.78;1.10;;;15.30;99.90;;;;;;4988986;28;20034;-83
2021/10/15 12:53:11;;;;;;;4.50;1.27;;;15.40;99.90;;;;;;4964682;28;20125;-84
2021/10/15 12:55:46;;;;;;;10.68;1.52;;;15.60;99.90;;;;;;4980840;28;20038;-84
2021/10/15 12:58:11;;;;;;;4.85;1.00;;;15.60;99.90;;;;;;4966519;28;20438;-84